createdAt,value
2018-10-11T00:01:48.991Z,14.60
2018-10-11T00:04:17.472Z,14.60
2018-10-11T00:06:45.919Z,14.60
2018-10-11T00:09:14.396Z,14.60
2018-10-11T00:11:42.868Z,14.60
2018-10-11T00:14:11.336Z,14.50
2018-10-11T00:16:40.020Z,14.50
2018-10-11T00:19:08.516Z,14.50
2018-10-11T00:21:37.012Z,14.50
2018-10-11T00:24:05.448Z,14.40
2018-10-11T00:26:33.924Z,14.40
2018-10-11T00:29:02.364Z,14.40
2018-10-11T00:31:30.836Z,14.40
2018-10-11T00:33:59.268Z,14.40
2018-10-11T00:36:27.741Z,14.30
2018-10-11T00:38:56.240Z,14.30
2018-10-11T00:41:24.709Z,14.30
2018-10-11T00:43:53.160Z,14.20
2018-10-11T00:46:21.632Z,14.20
2018-10-11T00:48:50.063Z,14.20
2018-10-11T00:51:18.549Z,14.20
2018-10-11T00:53:46.984Z,14.10
2018-10-11T00:56:15.456Z,14.10
2018-10-11T00:58:43.888Z,14.00
2018-10-11T01:01:12.364Z,14.00
2018-10-11T01:03:41.056Z,13.90
2018-10-11T01:06:10.084Z,13.90
2018-10-11T01:08:38.532Z,13.90
2018-10-11T01:11:07.021Z,13.90
2018-10-11T01:13:35.501Z,13.90
2018-10-11T01:16:03.948Z,13.90
2018-10-11T01:18:32.415Z,13.80
2018-10-11T01:21:00.909Z,13.80
2018-10-11T01:23:29.952Z,13.70
2018-10-11T01:25:58.428Z,13.70
2018-10-11T01:28:26.920Z,13.70
2018-10-11T01:31:00.829Z,13.70
2018-10-11T01:33:29.308Z,13.60
2018-10-11T01:35:57.797Z,13.60
2018-10-11T01:38:26.290Z,13.50
2018-10-11T01:40:55.064Z,13.60
2018-10-11T01:43:23.560Z,13.50
2018-10-11T01:45:52.081Z,13.50
2018-10-11T01:48:20.584Z,13.50
2018-10-11T01:50:49.036Z,13.50
2018-10-11T01:53:17.517Z,13.40
2018-10-11T01:55:45.972Z,13.40
2018-10-11T01:58:14.416Z,13.40
2018-10-11T02:00:42.879Z,13.40
2018-10-11T02:03:11.368Z,13.40
2018-10-11T02:05:39.817Z,13.40
2018-10-11T02:08:08.305Z,13.40
2018-10-11T02:10:36.776Z,13.30
2018-10-11T02:13:05.253Z,13.30
2018-10-11T02:15:33.688Z,13.30
2018-10-11T02:18:02.157Z,13.30
2018-10-11T02:20:30.604Z,13.20
2018-10-11T02:22:59.077Z,13.20
2018-10-11T02:25:27.520Z,13.20
2018-10-11T02:27:55.976Z,13.20
2018-10-11T02:30:24.422Z,13.20
2018-10-11T02:32:52.963Z,13.20
2018-10-11T02:35:21.404Z,13.20
2018-10-11T02:37:49.885Z,13.10
2018-10-11T02:40:18.321Z,13.10
2018-10-11T02:42:46.784Z,13.10
2018-10-11T02:45:15.236Z,13.10
2018-10-11T02:47:43.717Z,13.00
2018-10-11T02:50:12.177Z,13.00
2018-10-11T02:52:40.645Z,13.00
2018-10-11T02:55:09.215Z,13.00
2018-10-11T02:58:51.789Z,12.90
2018-10-11T03:01:20.325Z,12.90
2018-10-11T03:03:51.580Z,12.90
2018-10-11T03:06:20.121Z,12.90
2018-10-11T03:08:48.676Z,12.90
2018-10-11T03:11:17.248Z,12.90
2018-10-11T03:13:45.760Z,12.80
2018-10-11T03:16:14.215Z,12.80
2018-10-11T03:18:42.699Z,12.80
2018-10-11T03:21:11.144Z,12.80
2018-10-11T03:23:39.704Z,12.80
2018-10-11T03:26:08.156Z,12.80
2018-10-11T03:28:36.621Z,12.80
2018-10-11T03:31:05.077Z,12.80
2018-10-11T03:33:33.541Z,12.80
2018-10-11T03:36:01.980Z,12.80
2018-10-11T03:38:30.404Z,12.70
2018-10-11T03:40:58.872Z,12.70
2018-10-11T03:43:27.307Z,12.70
2018-10-11T03:45:55.775Z,12.70
2018-10-11T03:48:24.212Z,12.70
2018-10-11T03:50:52.684Z,12.70
2018-10-11T03:53:21.136Z,12.70
2018-10-11T03:55:49.622Z,12.60
2018-10-11T03:58:18.060Z,12.60
2018-10-11T04:00:46.520Z,12.50
2018-10-11T04:03:14.956Z,12.50
2018-10-11T04:05:43.429Z,12.50
2018-10-11T04:08:11.869Z,12.50
2018-10-11T04:10:40.371Z,12.50
2018-10-11T04:13:08.804Z,12.50
2018-10-11T04:15:37.325Z,12.40
2018-10-11T04:18:05.775Z,12.40
2018-10-11T04:20:34.240Z,12.40
2018-10-11T04:23:02.683Z,12.30
2018-10-11T04:25:31.160Z,12.30
2018-10-11T04:27:59.596Z,12.30
2018-10-11T04:30:28.060Z,12.30
2018-10-11T04:32:57.152Z,12.20
2018-10-11T04:35:25.872Z,12.20
2018-10-11T04:37:54.304Z,12.20
2018-10-11T04:40:22.760Z,12.20
2018-10-11T04:42:51.273Z,12.20
2018-10-11T04:45:19.675Z,12.20
2018-10-11T04:47:48.108Z,12.10
2018-10-11T04:50:16.576Z,12.10
2018-10-11T04:52:45.017Z,12.10
2018-10-11T04:55:13.489Z,12.20
2018-10-11T04:57:41.923Z,12.20
2018-10-11T05:00:10.411Z,12.20
2018-10-11T05:02:38.861Z,12.20
2018-10-11T05:05:07.700Z,12.20
2018-10-11T05:07:36.153Z,12.20
2018-10-11T05:10:04.700Z,12.20
2018-10-11T05:12:33.248Z,12.20
2018-10-11T05:15:01.832Z,12.20
2018-10-11T05:17:30.733Z,12.20
2018-10-11T05:19:59.204Z,12.20
2018-10-11T05:22:27.656Z,12.20
2018-10-11T05:24:56.104Z,12.20
2018-10-11T05:27:24.625Z,12.10
2018-10-11T05:29:53.076Z,12.10
2018-10-11T05:32:22.259Z,12.10
2018-10-11T05:34:50.668Z,12.00
2018-10-11T05:37:19.133Z,12.00
2018-10-11T05:39:47.640Z,11.90
2018-10-11T05:42:16.196Z,11.90
2018-10-11T05:44:45.065Z,11.80
2018-10-11T05:47:13.696Z,11.80
2018-10-11T05:49:42.253Z,11.70
2018-10-11T05:52:10.820Z,11.70
2018-10-11T05:54:39.361Z,11.70
2018-10-11T05:57:07.868Z,11.60
2018-10-11T05:59:36.412Z,11.60
2018-10-11T06:02:04.992Z,11.60
2018-10-11T06:04:33.464Z,11.60
2018-10-11T06:07:02.026Z,11.60
2018-10-11T06:09:30.532Z,11.60
2018-10-11T06:11:59.572Z,11.60
2018-10-11T06:14:28.252Z,11.60
2018-10-11T06:16:56.752Z,11.60
2018-10-11T06:19:25.277Z,11.70
2018-10-11T06:21:53.801Z,11.70
2018-10-11T06:24:22.252Z,11.70
2018-10-11T06:26:50.801Z,11.70
2018-10-11T06:29:19.317Z,11.70
2018-10-11T06:31:47.816Z,11.70
2018-10-11T06:34:16.464Z,11.80
2018-10-11T06:36:45.035Z,11.80
2018-10-11T06:39:13.548Z,11.80
2018-10-11T06:41:42.141Z,11.90
2018-10-11T06:44:10.784Z,11.90
2018-10-11T06:46:39.325Z,12.00
2018-10-11T06:49:08.073Z,12.00
2018-10-11T06:51:36.641Z,12.10
2018-10-11T06:54:05.090Z,12.10
2018-10-11T06:56:33.560Z,12.20
2018-10-11T06:59:02.012Z,12.30
2018-10-11T07:01:30.502Z,12.30
2018-10-11T07:03:58.964Z,12.30
2018-10-11T07:06:27.501Z,12.40
2018-10-11T07:08:55.988Z,12.40
2018-10-11T07:11:24.453Z,12.50
2018-10-11T07:13:52.932Z,12.50
2018-10-11T07:16:21.421Z,12.60
2018-10-11T07:18:50.725Z,12.70
2018-10-11T07:21:19.213Z,12.70
2018-10-11T07:23:47.687Z,12.80
2018-10-11T07:26:16.165Z,12.90
2018-10-11T07:28:44.649Z,12.90
2018-10-11T07:31:13.084Z,13.00
2018-10-11T07:33:41.644Z,13.10
2018-10-11T07:36:10.092Z,13.10
2018-10-11T07:38:38.577Z,13.20
2018-10-11T07:41:07.051Z,13.20
2018-10-11T07:43:35.512Z,13.30
2018-10-11T07:46:03.966Z,13.40
2018-10-11T07:48:32.444Z,13.50
2018-10-11T07:51:00.894Z,13.50
2018-10-11T07:53:29.372Z,13.60
2018-10-11T07:55:57.822Z,13.60
2018-10-11T07:58:26.292Z,13.70
2018-10-11T08:00:54.740Z,13.80
2018-10-11T08:03:23.258Z,13.90
2018-10-11T08:05:51.713Z,14.00
2018-10-11T08:08:20.186Z,14.10
2018-10-11T08:10:48.654Z,14.20
2018-10-11T08:13:17.162Z,14.30
2018-10-11T08:15:45.613Z,14.40
2018-10-11T08:18:14.088Z,14.50
2018-10-11T08:20:42.521Z,14.60
2018-10-11T08:23:11.012Z,14.80
2018-10-11T08:25:39.716Z,15.00
2018-10-11T08:28:08.193Z,15.30
2018-10-11T08:30:36.640Z,15.50
2018-10-11T08:33:05.348Z,15.80
2018-10-11T08:35:33.964Z,16.00
2018-10-11T08:38:02.740Z,16.40
2018-10-11T08:40:31.041Z,16.60
2018-10-11T08:42:59.516Z,16.90
2018-10-11T08:45:27.952Z,17.40
2018-10-11T08:47:56.413Z,18.90
2018-10-11T08:50:25.064Z,20.80
2018-10-11T08:52:53.348Z,23.20
2018-10-11T08:55:21.811Z,25.70
2018-10-11T08:57:50.248Z,27.90
2018-10-11T09:00:18.713Z,29.60
2018-10-11T09:02:47.160Z,31.60
2018-10-11T09:05:15.684Z,33.70
2018-10-11T09:07:44.105Z,35.20
2018-10-11T09:10:12.576Z,36.00
2018-10-11T09:12:41.013Z,36.70
2018-10-11T09:15:09.561Z,36.70
2018-10-11T09:17:37.988Z,36.30
2018-10-11T09:20:06.500Z,36.20
2018-10-11T09:22:35.032Z,34.90
2018-10-11T09:25:03.576Z,35.00
2018-10-11T09:27:32.041Z,35.40
2018-10-11T09:30:00.561Z,35.70
2018-10-11T09:32:29.027Z,35.40
2018-10-11T09:34:57.533Z,34.70
2018-10-11T09:37:25.992Z,34.80
2018-10-11T09:39:54.484Z,34.60
2018-10-11T09:42:22.944Z,34.20
2018-10-11T09:44:51.429Z,34.20
2018-10-11T09:47:19.892Z,35.00
2018-10-11T09:49:48.376Z,35.40
2018-10-11T09:52:16.946Z,36.10
2018-10-11T09:54:45.469Z,36.70
2018-10-11T09:57:32.281Z,36.20
2018-10-11T10:00:02.085Z,37.10
2018-10-11T10:02:31.060Z,38.30
2018-10-11T10:05:01.637Z,37.70
2018-10-11T10:07:30.133Z,38.30
2018-10-11T10:09:58.677Z,39.40
2018-10-11T10:12:27.120Z,40.50
2018-10-11T10:14:55.617Z,41.80
2018-10-11T10:17:24.092Z,42.10
2018-10-11T10:19:52.589Z,42.00
2018-10-11T10:22:21.048Z,40.70
2018-10-11T10:24:49.560Z,40.90
2018-10-11T10:27:18.084Z,40.90
2018-10-11T10:29:46.536Z,39.90
2018-10-11T10:32:15.001Z,38.80
2018-10-11T10:34:43.503Z,38.70
2018-10-11T10:37:11.988Z,37.40
2018-10-11T10:39:40.518Z,36.60
2018-10-11T10:42:09.088Z,36.70
2018-10-11T10:44:37.568Z,37.30
2018-10-11T10:47:06.101Z,38.00
2018-10-11T10:49:34.589Z,38.40
2018-10-11T10:52:03.097Z,39.00
2018-10-11T10:54:32.672Z,40.30
2018-10-11T10:57:01.641Z,41.20
2018-10-11T10:59:30.256Z,41.80
2018-10-11T11:01:58.746Z,42.70
2018-10-11T11:04:27.208Z,43.20
2018-10-11T11:06:55.768Z,43.90
2018-10-11T11:09:24.283Z,42.80
2018-10-11T11:11:52.764Z,42.30
2018-10-11T11:14:21.236Z,41.90
2018-10-11T11:16:49.728Z,41.20
2018-10-11T11:19:18.184Z,40.20
2018-10-11T11:21:46.668Z,38.90
2018-10-11T11:24:15.125Z,37.00
2018-10-11T11:26:43.624Z,36.00
2018-10-11T11:29:12.094Z,35.70
2018-10-11T11:31:40.592Z,35.60
2018-10-11T11:34:09.060Z,36.10
2018-10-11T11:36:37.540Z,36.60
2018-10-11T11:39:08.380Z,36.70
2018-10-11T11:41:36.954Z,37.40
2018-10-11T11:44:05.465Z,38.10
2018-10-11T11:46:34.013Z,38.80
2018-10-11T11:49:02.480Z,39.10
2018-10-11T11:51:30.981Z,38.20
2018-10-11T11:53:59.443Z,37.80
2018-10-11T11:56:27.924Z,37.50
2018-10-11T11:58:56.381Z,36.20
2018-10-11T12:01:24.918Z,36.10
2018-10-11T12:03:53.392Z,37.20
2018-10-11T12:06:21.883Z,37.80
2018-10-11T12:08:50.332Z,38.50
2018-10-11T12:11:18.812Z,39.30
2018-10-11T12:13:47.264Z,39.90
2018-10-11T12:16:15.736Z,39.90
2018-10-11T12:18:44.179Z,40.10
2018-10-11T12:21:12.673Z,40.70
2018-10-11T12:23:41.121Z,41.10
2018-10-11T12:26:09.589Z,40.70
2018-10-11T12:28:38.152Z,39.20
2018-10-11T12:31:06.913Z,38.40
2018-10-11T12:33:35.409Z,37.00
2018-10-11T12:36:04.032Z,35.70
2018-10-11T12:38:32.524Z,35.20
2018-10-11T12:41:01.675Z,34.30
2018-10-11T12:43:29.495Z,33.60
2018-10-11T12:45:57.962Z,33.40
2018-10-11T12:48:26.440Z,32.40
2018-10-11T12:50:54.893Z,31.70
2018-10-11T12:53:23.400Z,31.70
2018-10-11T12:55:51.858Z,31.90
2018-10-11T12:58:20.325Z,32.30
2018-10-11T13:00:48.822Z,32.40
2018-10-11T13:03:17.568Z,32.60
2018-10-11T13:05:45.992Z,32.50
2018-10-11T13:08:14.440Z,32.70
2018-10-11T13:10:42.924Z,32.80
2018-10-11T13:13:11.388Z,32.50
2018-10-11T13:15:39.900Z,32.40
2018-10-11T13:18:08.328Z,32.40
2018-10-11T13:20:36.850Z,32.40
2018-10-11T13:23:08.487Z,32.40
2018-10-11T13:25:33.796Z,32.20
2018-10-11T13:28:02.262Z,32.00
2018-10-11T13:30:30.732Z,31.60
2018-10-11T13:32:59.192Z,31.70
2018-10-11T13:35:27.658Z,31.60
2018-10-11T13:37:56.132Z,31.80
2018-10-11T13:40:24.633Z,32.00
2018-10-11T13:42:53.113Z,32.30
2018-10-11T13:45:21.573Z,32.10
2018-10-11T13:47:50.060Z,31.80
2018-10-11T13:50:18.512Z,31.60
2018-10-11T13:52:47.016Z,31.80
2018-10-11T13:55:15.798Z,31.60
2018-10-11T13:57:43.961Z,31.70
2018-10-11T14:00:12.416Z,31.80
2018-10-11T14:02:40.896Z,31.70
2018-10-11T14:05:09.380Z,31.80
2018-10-11T14:07:37.852Z,31.90
2018-10-11T14:10:06.386Z,32.00
2018-10-11T14:12:34.863Z,32.10
2018-10-11T14:15:03.328Z,32.00
2018-10-11T14:17:31.849Z,31.80
2018-10-11T14:20:00.269Z,31.40
2018-10-11T14:22:28.756Z,31.10
2018-10-11T14:24:57.212Z,30.60
2018-10-11T14:27:25.685Z,30.50
2018-10-11T14:29:54.196Z,30.00
2018-10-11T14:32:22.640Z,29.90
2018-10-11T14:34:51.129Z,29.80
2018-10-11T14:37:19.649Z,29.80
2018-10-11T14:39:48.088Z,30.00
2018-10-11T14:42:16.532Z,30.10
2018-10-11T14:44:45.045Z,30.10
2018-10-11T14:47:13.545Z,30.10
2018-10-11T14:49:42.028Z,29.90
2018-10-11T14:52:10.500Z,29.90
2018-10-11T14:54:38.996Z,29.70
2018-10-11T14:57:07.458Z,29.60
2018-10-11T14:59:36.272Z,29.60
2018-10-11T15:02:04.713Z,29.60
2018-10-11T15:04:33.596Z,29.50
2018-10-11T15:07:02.144Z,29.10
2018-10-11T15:09:30.616Z,29.00
2018-10-11T15:11:59.111Z,28.80
2018-10-11T15:14:27.586Z,28.50
2018-10-11T15:16:56.607Z,28.50
2018-10-11T15:19:25.259Z,28.40
2018-10-11T15:21:53.736Z,28.30
2018-10-11T15:24:22.177Z,28.20
2018-10-11T15:26:50.644Z,28.20
2018-10-11T15:29:19.105Z,28.30
2018-10-11T15:31:47.556Z,28.30
2018-10-11T15:34:15.988Z,28.30
2018-10-11T15:36:44.577Z,28.20
2018-10-11T15:39:13.640Z,28.10
2018-10-11T15:41:42.128Z,27.90
2018-10-11T15:44:11.629Z,27.80
2018-10-11T15:46:40.463Z,27.70
2018-10-11T15:49:09.309Z,27.60
2018-10-11T15:51:38.157Z,27.50
2018-10-11T15:54:07.768Z,27.60
2018-10-11T15:56:36.504Z,27.50
2018-10-11T15:59:04.979Z,27.40
2018-10-11T16:01:33.564Z,27.40
2018-10-11T16:04:02.044Z,27.30
2018-10-11T16:06:30.729Z,27.30
2018-10-11T16:08:59.231Z,27.20
2018-10-11T16:11:27.652Z,27.10
2018-10-11T16:13:56.412Z,27.00
2018-10-11T16:16:24.845Z,26.80
2018-10-11T16:18:53.472Z,26.70
2018-10-11T16:21:21.910Z,26.50
2018-10-11T16:23:50.376Z,26.40
2018-10-11T16:26:18.939Z,26.20
2018-10-11T16:28:47.403Z,26.00
2018-10-11T16:31:15.849Z,25.90
2018-10-11T16:33:44.322Z,25.80
2018-10-11T16:36:12.760Z,25.60
2018-10-11T16:38:41.229Z,25.50
2018-10-11T16:41:09.686Z,25.30
2018-10-11T16:43:38.144Z,25.20
2018-10-11T16:46:06.608Z,25.00
2018-10-11T16:48:35.072Z,24.90
2018-10-11T16:51:03.613Z,24.80
2018-10-11T16:53:32.083Z,24.60
2018-10-11T16:56:00.512Z,24.50
2018-10-11T16:58:28.976Z,24.40
2018-10-11T17:00:57.416Z,24.30
2018-10-11T17:03:25.876Z,24.20
2018-10-11T17:05:54.385Z,24.10
2018-10-11T17:08:22.880Z,24.00
2018-10-11T17:10:51.320Z,23.90
2018-10-11T17:13:19.800Z,23.70
2018-10-11T17:15:48.245Z,23.60
2018-10-11T17:18:16.728Z,23.60
2018-10-11T17:20:45.176Z,23.50
2018-10-11T17:23:13.612Z,23.40
2018-10-11T17:25:42.109Z,23.30
2018-10-11T17:28:10.560Z,23.20
2018-10-11T17:30:39.029Z,23.10
2018-10-11T17:33:07.481Z,23.00
2018-10-11T17:35:35.959Z,22.90
2018-10-11T17:38:04.399Z,22.80
2018-10-11T17:40:32.868Z,22.70
2018-10-11T17:43:01.304Z,22.60
2018-10-11T17:45:29.768Z,22.40
2018-10-11T17:47:58.204Z,22.30
2018-10-11T17:50:26.767Z,22.20
2018-10-11T17:52:55.226Z,22.10
2018-10-11T17:55:23.700Z,22.00
2018-10-11T17:57:52.133Z,21.90
2018-10-11T18:00:20.636Z,21.80
2018-10-11T18:02:49.148Z,21.80
2018-10-11T18:05:17.640Z,21.70
2018-10-11T18:07:46.076Z,21.60
2018-10-11T18:10:14.621Z,21.50
2018-10-11T18:12:43.088Z,21.40
2018-10-11T18:15:11.580Z,21.40
2018-10-11T18:17:40.012Z,21.20
2018-10-11T18:20:08.569Z,21.10
2018-10-11T18:22:37.039Z,21.00
2018-10-11T18:25:05.532Z,21.00
2018-10-11T18:27:33.976Z,20.90
2018-10-11T18:30:02.413Z,20.70
2018-10-11T18:32:30.944Z,20.70
2018-10-11T18:34:59.380Z,20.60
2018-10-11T18:37:27.908Z,20.50
2018-10-11T18:39:56.353Z,20.50
2018-10-11T18:42:24.825Z,20.40
2018-10-11T18:44:53.380Z,20.40
2018-10-11T18:47:21.853Z,20.30
2018-10-11T18:49:50.325Z,20.20
2018-10-11T18:52:18.795Z,20.10
2018-10-11T18:54:47.241Z,20.10
2018-10-11T18:57:15.712Z,20.00
2018-10-11T18:59:44.144Z,19.90
2018-10-11T19:02:12.610Z,19.70
2018-10-11T19:04:41.130Z,19.70
2018-10-11T19:07:10.184Z,19.70
2018-10-11T19:09:38.760Z,19.70
2018-10-11T19:12:07.237Z,19.60
2018-10-11T19:14:35.681Z,19.60
2018-10-11T19:17:04.188Z,19.50
2018-10-11T19:19:32.624Z,19.50
2018-10-11T19:22:01.085Z,19.50
2018-10-11T19:24:29.534Z,19.40
2018-10-11T19:26:58.016Z,19.40
2018-10-11T19:29:26.449Z,19.40
2018-10-11T19:31:54.920Z,19.30
2018-10-11T19:34:23.353Z,19.30
2018-10-11T19:36:51.869Z,19.30
2018-10-11T19:39:20.330Z,19.30
2018-10-11T19:41:48.804Z,19.30
2018-10-11T19:44:17.239Z,19.20
2018-10-11T19:46:45.723Z,19.10
2018-10-11T19:49:14.160Z,19.10
2018-10-11T19:51:42.632Z,19.10
2018-10-11T19:54:11.112Z,19.00
2018-10-11T19:56:39.588Z,19.00
2018-10-11T19:59:08.033Z,18.90
2018-10-11T20:01:36.491Z,18.80
2018-10-11T20:04:04.936Z,18.70
2018-10-11T20:06:33.412Z,18.70
2018-10-11T20:09:01.861Z,18.70
2018-10-11T20:11:30.329Z,18.70
2018-10-11T20:13:58.756Z,18.60
2018-10-11T20:16:27.229Z,18.50
2018-10-11T20:18:55.668Z,18.50
2018-10-11T20:21:24.128Z,18.40
2018-10-11T20:23:52.570Z,18.40
2018-10-11T20:26:21.076Z,18.40
2018-10-11T20:28:49.516Z,18.40
2018-10-11T20:31:17.980Z,18.40
2018-10-11T20:33:46.416Z,18.40
2018-10-11T20:36:14.884Z,18.40
2018-10-11T20:38:43.312Z,18.30
2018-10-11T20:41:11.802Z,18.30
2018-10-11T20:43:40.260Z,18.30
2018-10-11T20:46:08.766Z,18.40
2018-10-11T20:48:37.205Z,18.30
2018-10-11T20:51:05.681Z,18.40
2018-10-11T20:53:34.136Z,18.30
2018-10-11T20:56:02.593Z,18.30
2018-10-11T20:58:31.064Z,18.20
2018-10-11T21:00:59.528Z,18.20
2018-10-11T21:03:28.001Z,18.20
2018-10-11T21:05:56.529Z,18.20
2018-10-11T21:08:24.920Z,18.20
2018-10-11T21:10:53.359Z,18.20
2018-10-11T21:13:21.860Z,18.20
2018-10-11T21:15:50.305Z,18.10
2018-10-11T21:18:18.779Z,18.00
2018-10-11T21:20:47.213Z,17.90
2018-10-11T21:23:15.676Z,17.90
2018-10-11T21:25:44.108Z,17.90
2018-10-11T21:28:13.449Z,17.80
2018-10-11T21:30:41.884Z,17.80
2018-10-11T21:33:10.363Z,17.80
2018-10-11T21:35:38.808Z,17.80
2018-10-11T21:38:07.463Z,17.80
2018-10-11T21:40:36.093Z,17.80
2018-10-11T21:43:05.151Z,17.80
2018-10-11T21:45:33.600Z,17.80
2018-10-11T21:48:02.126Z,17.80
2018-10-11T21:50:30.553Z,17.80
2018-10-11T21:52:59.033Z,17.80
2018-10-11T21:55:27.520Z,17.80
2018-10-11T21:57:55.988Z,17.80
2018-10-11T22:00:29.880Z,17.80
2018-10-11T22:02:58.363Z,17.70
2018-10-11T22:05:26.808Z,17.70
2018-10-11T22:07:55.264Z,17.70
2018-10-11T22:10:23.948Z,17.80
2018-10-11T22:12:52.645Z,17.80
2018-10-11T22:15:21.115Z,17.70
2018-10-11T22:17:49.572Z,17.60
2018-10-11T22:20:18.044Z,17.50
2018-10-11T22:22:46.499Z,17.50
2018-10-11T22:25:14.984Z,17.40
2018-10-11T22:27:43.432Z,17.30
2018-10-11T22:30:11.925Z,17.30
2018-10-11T22:32:40.364Z,17.30
2018-10-11T22:35:08.880Z,17.30
2018-10-11T22:37:37.306Z,17.30
2018-10-11T22:40:05.887Z,17.30
2018-10-11T22:42:34.332Z,17.20
2018-10-11T22:45:02.864Z,17.20
2018-10-11T22:47:31.416Z,17.30
2018-10-11T22:49:59.876Z,17.30
2018-10-11T22:52:28.353Z,17.30
2018-10-11T22:54:56.828Z,17.10
2018-10-11T22:57:25.284Z,17.10
2018-10-11T22:59:53.752Z,17.00
2018-10-11T23:02:22.200Z,17.00
2018-10-11T23:04:50.664Z,17.00
2018-10-11T23:07:19.112Z,17.00
2018-10-11T23:09:47.575Z,17.00
2018-10-11T23:12:16.023Z,17.00
2018-10-11T23:14:44.587Z,16.90
2018-10-11T23:17:12.955Z,16.90
2018-10-11T23:19:41.571Z,16.90
2018-10-11T23:22:10.013Z,16.90
2018-10-11T23:24:38.449Z,16.90
2018-10-11T23:27:07.169Z,16.90
2018-10-11T23:29:35.604Z,16.90
2018-10-11T23:32:04.080Z,16.90
2018-10-11T23:34:32.543Z,16.90
2018-10-11T23:37:01.011Z,16.90
2018-10-11T23:39:29.455Z,16.80
2018-10-11T23:41:57.920Z,16.80
2018-10-11T23:44:26.358Z,16.80
2018-10-11T23:46:54.933Z,16.90
2018-10-11T23:49:23.368Z,16.90
2018-10-11T23:51:51.844Z,16.90
2018-10-11T23:54:20.281Z,16.90
2018-10-11T23:56:48.716Z,16.90
2018-10-11T23:59:17.187Z,16.90
